Time;durP1;ratioP1;P1;durP2;ratioP2;P2;SDS_P1;SDS_P2;PMS_P1;PMS_P2;Temp;Humidity;BMP_temperature;BMP_pressure;BME280_temperature;BME280_humidity;BME280_pressure;Samples;Min_cycle;Max_cycle;Signal;HPM_P1;HPM_P2
2023/10/24 00:01:40;;;;;;;20.35;13.77;;;10.60;99.90;;;;;;5072514;28;20117;-65
2023/10/24 00:04:06;;;;;;;21.00;13.63;;;10.70;99.90;;;;;;5087104;28;20066;-65
2023/10/24 00:06:33;;;;;;;23.75;13.95;;;10.70;99.90;;;;;;5092437;28;20459;-65
2023/10/24 00:08:59;;;;;;;19.88;12.98;;;10.90;99.90;;;;;;5092451;28;20139;-66
2023/10/24 00:11:26;;;;;;;18.25;12.70;;;10.60;99.90;;;;;;5077231;28;20455;-64
2023/10/24 00:13:52;;;;;;;19.85;12.65;;;10.60;99.90;;;;;;5076403;28;20067;-64
2023/10/24 00:16:18;;;;;;;18.40;12.88;;;10.80;99.90;;;;;;5059444;28;20044;-64
2023/10/24 00:18:44;;;;;;;17.15;11.48;;;10.90;99.90;;;;;;5076348;28;20047;-67
2023/10/24 00:21:11;;;;;;;18.92;12.55;;;10.70;99.90;;;;;;5075791;28;20501;-66
2023/10/24 00:23:37;;;;;;;20.38;13.63;;;11.00;99.90;;;;;;5096314;28;20055;-65
2023/10/24 00:26:03;;;;;;;19.83;13.10;;;10.70;99.90;;;;;;5096339;28;20556;-65
2023/10/24 00:28:30;;;;;;;17.17;11.55;;;10.60;99.90;;;;;;5096110;28;20062;-65
2023/10/24 00:30:56;;;;;;;19.13;12.05;;;10.80;99.90;;;;;;5065251;28;20056;-65
2023/10/24 00:33:22;;;;;;;16.55;11.77;;;10.90;99.90;;;;;;5076038;28;20059;-65
2023/10/24 00:35:48;;;;;;;19.58;12.63;;;10.90;99.90;;;;;;5075182;28;20052;-67
2023/10/24 00:38:14;;;;;;;18.58;12.85;;;10.70;99.90;;;;;;5076135;28;20059;-66
2023/10/24 00:40:41;;;;;;;18.80;11.35;;;11.00;99.90;;;;;;5087761;28;20084;-64
2023/10/24 00:43:07;;;;;;;16.58;11.93;;;10.70;99.90;;;;;;5095881;28;20039;-66
2023/10/24 00:45:35;;;;;;;14.68;10.05;;;11.10;99.90;;;;;;5079450;28;20463;-66
2023/10/24 00:48:02;;;;;;;13.70;9.88;;;10.70;99.90;;;;;;5095580;28;20066;-64
2023/10/24 00:50:32;;;;;;;14.68;10.30;;;11.00;99.90;;;;;;5105815;27;20483;-65
2023/10/24 00:53:00;;;;;;;14.77;9.60;;;10.70;99.90;;;;;;5134675;27;20292;-65
2023/10/24 00:55:29;;;;;;;16.85;11.30;;;10.70;99.90;;;;;;5116089;27;20518;-65
2023/10/24 00:57:57;;;;;;;16.25;10.65;;;11.00;99.90;;;;;;5115971;27;20047;-65
2023/10/24 01:00:24;;;;;;;14.88;10.23;;;10.80;99.90;;;;;;5106149;28;20066;-64
2023/10/24 01:02:51;;;;;;;14.23;10.05;;;10.80;99.90;;;;;;5078800;28;20100;-64
2023/10/24 01:05:18;;;;;;;15.82;10.50;;;10.80;99.90;;;;;;5095587;28;20047;-65
2023/10/24 01:07:45;;;;;;;15.50;12.13;;;11.10;99.90;;;;;;5078476;28;20069;-64
2023/10/24 01:10:12;;;;;;;15.70;10.63;;;11.10;99.90;;;;;;5103568;27;20047;-64
2023/10/24 01:12:39;;;;;;;14.82;10.55;;;10.90;99.90;;;;;;5116053;27;20055;-65
2023/10/24 01:15:06;;;;;;;14.32;10.55;;;10.90;99.90;;;;;;5115621;27;20051;-63
2023/10/24 01:17:32;;;;;;;15.90;12.07;;;11.20;99.90;;;;;;5115229;27;20059;-66
2023/10/24 01:19:59;;;;;;;15.95;11.10;;;11.20;99.90;;;;;;5109564;28;20382;-65
2023/10/24 01:22:25;;;;;;;15.48;11.55;;;11.20;99.90;;;;;;5077243;28;20083;-64
2023/10/24 01:24:53;;;;;;;15.75;11.75;;;11.30;99.90;;;;;;5095209;28;20061;-64
2023/10/24 01:27:21;;;;;;;17.00;11.77;;;11.30;99.90;;;;;;5094673;28;20053;-65
2023/10/24 01:29:47;;;;;;;16.77;10.77;;;11.30;99.90;;;;;;5082295;27;20046;-65
2023/10/24 01:32:13;;;;;;;17.13;11.77;;;11.10;99.90;;;;;;5115588;27;20058;-65
2023/10/24 01:34:39;;;;;;;16.88;11.20;;;11.00;99.90;;;;;;5115685;27;20050;-65
2023/10/24 01:37:06;;;;;;;19.55;12.50;;;11.10;99.90;;;;;;5097990;27;20463;-65
2023/10/24 01:39:32;;;;;;;16.42;11.10;;;11.10;99.90;;;;;;5113335;27;20104;-63
2023/10/24 01:41:59;;;;;;;16.83;11.18;;;10.90;99.90;;;;;;5078315;28;20051;-66
2023/10/24 01:44:25;;;;;;;17.80;11.85;;;10.90;99.90;;;;;;5077944;28;20247;-65
2023/10/24 01:46:51;;;;;;;19.30;12.75;;;11.00;99.90;;;;;;5094355;28;20135;-66
2023/10/24 01:49:17;;;;;;;18.30;11.80;;;11.10;99.90;;;;;;5094218;28;20139;-64
2023/10/24 01:51:44;;;;;;;17.05;11.82;;;11.30;99.90;;;;;;5074732;28;20054;-63
2023/10/24 01:54:10;;;;;;;18.58;12.13;;;11.10;99.90;;;;;;5075132;28;20056;-65
2023/10/24 01:56:36;;;;;;;17.27;11.90;;;11.30;99.90;;;;;;5057363;28;20047;-64
2023/10/24 01:59:04;;;;;;;17.45;11.73;;;11.30;99.90;;;;;;5074551;28;20237;-64
2023/10/24 02:01:30;;;;;;;19.50;13.00;;;11.10;99.90;;;;;;5092406;28;20389;-64
2023/10/24 02:03:58;;;;;;;16.13;11.63;;;11.00;99.90;;;;;;5094838;28;20463;-65
2023/10/24 02:06:25;;;;;;;17.15;11.68;;;11.00;99.90;;;;;;5077092;28;20047;-65
2023/10/24 02:08:51;;;;;;;16.85;11.02;;;11.00;99.90;;;;;;5094609;28;20407;-65
2023/10/24 02:11:17;;;;;;;17.58;11.55;;;11.30;99.90;;;;;;5061012;28;20055;-64
2023/10/24 02:13:44;;;;;;;19.15;12.43;;;11.10;99.90;;;;;;5074438;28;20059;-65
2023/10/24 02:16:10;;;;;;;16.38;11.63;;;11.30;99.90;;;;;;5073630;28;20460;-65
2023/10/24 02:18:36;;;;;;;17.00;11.07;;;11.20;99.90;;;;;;5074275;28;20452;-65
2023/10/24 02:21:07;;;;;;;18.38;11.50;;;11.20;99.90;;;;;;5087812;28;20415;-65
2023/10/24 02:23:37;;;;;;;15.95;10.48;;;10.90;99.90;;;;;;5094333;28;20055;-65
2023/10/24 02:26:03;;;;;;;14.65;11.13;;;11.00;99.90;;;;;;5093633;28;20112;-64
2023/10/24 02:28:29;;;;;;;17.65;11.88;;;11.10;99.90;;;;;;5112082;28;20108;-64
2023/10/24 02:30:55;;;;;;;14.98;10.50;;;11.00;99.90;;;;;;5080568;28;20093;-64
2023/10/24 02:33:22;;;;;;;17.70;10.63;;;11.30;99.90;;;;;;5073457;28;20079;-65
2023/10/24 02:35:48;;;;;;;15.00;11.60;;;11.30;99.90;;;;;;5056667;28;20077;-65
2023/10/24 02:38:16;;;;;;;15.35;10.82;;;11.40;99.90;;;;;;5074271;28;20514;-62
2023/10/24 02:40:51;;;;;;;13.60;9.93;;;11.50;99.90;;;;;;5084759;28;20459;-65
2023/10/24 02:43:17;;;;;;;14.43;10.30;;;11.50;99.90;;;;;;5077152;28;20059;-65
2023/10/24 02:45:44;;;;;;;15.32;9.98;;;11.20;99.90;;;;;;5093903;28;20059;-65
2023/10/24 02:48:10;;;;;;;14.32;10.27;;;11.50;99.90;;;;;;5094079;28;20048;-64
2023/10/24 02:50:36;;;;;;;15.93;11.27;;;11.20;99.90;;;;;;5066431;28;20109;-63
2023/10/24 02:53:06;;;;;;;14.18;10.30;;;11.20;99.90;;;;;;5057055;28;20372;-65
2023/10/24 02:55:36;;;;;;;16.27;9.73;;;11.20;99.90;;;;;;5073146;28;20051;-64
2023/10/24 02:58:02;;;;;;;16.20;10.93;;;11.40;99.90;;;;;;5073026;28;20052;-64
2023/10/24 03:00:29;;;;;;;15.45;9.98;;;11.40;99.90;;;;;;5082216;28;20061;-64
2023/10/24 03:02:55;;;;;;;13.90;10.13;;;11.60;99.90;;;;;;5093642;28;20685;-65
2023/10/24 03:05:22;;;;;;;14.05;9.40;;;11.30;99.90;;;;;;5093357;28;20079;-63
2023/10/24 03:07:48;;;;;;;14.13;11.00;;;11.30;99.90;;;;;;5093042;28;20056;-64
2023/10/24 03:10:14;;;;;;;14.00;9.93;;;11.40;99.90;;;;;;5086395;28;20070;-65
2023/10/24 03:12:41;;;;;;;13.57;10.60;;;11.60;99.90;;;;;;5073299;28;20047;-65
2023/10/24 03:15:07;;;;;;;14.02;10.20;;;11.40;99.90;;;;;;5091034;28;20447;-64
2023/10/24 03:17:33;;;;;;;14.45;9.82;;;11.30;99.90;;;;;;5072525;28;20548;-64
2023/10/24 03:20:00;;;;;;;12.98;9.82;;;11.50;99.90;;;;;;5060964;28;20035;-64
2023/10/24 03:22:26;;;;;;;13.35;10.73;;;11.60;99.90;;;;;;5110873;28;20043;-65
2023/10/24 03:24:52;;;;;;;12.93;10.13;;;11.50;99.90;;;;;;5076468;28;20092;-64
2023/10/24 03:27:18;;;;;;;16.90;11.70;;;11.40;99.90;;;;;;5092958;28;20052;-64
2023/10/24 03:29:46;;;;;;;15.48;11.32;;;11.60;99.90;;;;;;5089897;28;20372;-66
2023/10/24 03:32:12;;;;;;;14.65;12.00;;;11.70;99.90;;;;;;5072976;28;20066;-64
2023/10/24 03:34:39;;;;;;;15.38;12.88;;;11.70;99.90;;;;;;5072540;28;20048;-64
2023/10/24 03:37:05;;;;;;;15.07;11.73;;;11.40;99.90;;;;;;5071996;28;20058;-64
2023/10/24 03:39:31;;;;;;;15.55;12.18;;;11.50;99.90;;;;;;5073064;28;20052;-64
2023/10/24 03:41:58;;;;;;;18.33;12.50;;;11.60;99.90;;;;;;5092898;28;20043;-63
2023/10/24 03:44:24;;;;;;;14.77;12.25;;;11.80;99.90;;;;;;5091903;28;20061;-63
2023/10/24 03:46:50;;;;;;;13.75;11.95;;;11.70;99.90;;;;;;5092178;28;20343;-65
2023/10/24 03:49:17;;;;;;;15.25;12.25;;;11.80;99.90;;;;;;5092892;28;20047;-64
2023/10/24 03:51:43;;;;;;;16.67;12.50;;;11.70;99.90;;;;;;5073064;28;20052;-62
2023/10/24 03:54:10;;;;;;;16.45;12.98;;;11.80;99.90;;;;;;5072990;28;20055;-62
2023/10/24 03:56:36;;;;;;;14.25;12.70;;;11.60;99.90;;;;;;5071693;28;20136;-64
2023/10/24 03:59:02;;;;;;;15.90;12.50;;;11.60;99.90;;;;;;5055860;28;20051;-65
2023/10/24 04:01:29;;;;;;;14.00;12.40;;;11.90;99.90;;;;;;5072443;28;20419;-63
2023/10/24 04:03:55;;;;;;;14.75;12.55;;;11.70;99.90;;;;;;5092750;28;20455;-63
2023/10/24 04:06:21;;;;;;;14.38;12.88;;;11.80;99.90;;;;;;5091724;28;20105;-63
2023/10/24 04:08:48;;;;;;;13.48;11.45;;;11.70;99.90;;;;;;5092709;28;20048;-63
2023/10/24 04:11:15;;;;;;;12.95;11.75;;;11.50;99.90;;;;;;5077210;28;20056;-63
2023/10/24 04:13:42;;;;;;;17.10;11.73;;;11.80;99.90;;;;;;5072232;28;20383;-64
2023/10/24 04:16:09;;;;;;;15.02;13.55;;;11.90;99.90;;;;;;5071825;28;20052;-64
2023/10/24 04:18:35;;;;;;;14.50;12.23;;;11.70;99.90;;;;;;5072075;28;20059;-63
2023/10/24 04:21:02;;;;;;;14.40;12.32;;;11.80;99.90;;;;;;5084680;28;20046;-63
2023/10/24 04:23:28;;;;;;;14.00;11.38;;;11.50;99.90;;;;;;5092312;28;20055;-64
2023/10/24 04:25:55;;;;;;;14.57;11.20;;;11.90;99.90;;;;;;5091668;28;20055;-64
2023/10/24 04:28:21;;;;;;;13.85;11.68;;;11.60;99.90;;;;;;5092136;28;20457;-62
2023/10/24 04:30:48;;;;;;;13.70;10.77;;;11.60;99.90;;;;;;5087322;28;20059;-64
2023/10/24 04:33:14;;;;;;;13.02;11.15;;;11.50;99.90;;;;;;5092424;28;20059;-64
2023/10/24 04:35:47;;;;;;;13.65;10.20;;;11.60;99.90;;;;;;5091693;28;20100;-65
2023/10/24 04:38:13;;;;;;;12.68;10.18;;;11.70;99.90;;;;;;5092477;28;20498;-62
2023/10/24 04:40:40;;;;;;;12.60;10.32;;;11.60;99.90;;;;;;5091601;28;20055;-63
2023/10/24 04:43:07;;;;;;;12.88;9.35;;;11.60;99.90;;;;;;5092182;28;20063;-64
2023/10/24 04:45:34;;;;;;;10.73;9.18;;;11.80;99.90;;;;;;5091691;28;20462;-63
2023/10/24 04:48:00;;;;;;;11.45;8.77;;;11.80;99.90;;;;;;5079150;28;21143;-64
2023/10/24 04:50:27;;;;;;;10.95;8.73;;;11.80;99.90;;;;;;5089038;28;20047;-65
2023/10/24 04:52:54;;;;;;;12.85;9.38;;;11.70;99.90;;;;;;5071541;28;20483;-64
2023/10/24 04:55:23;;;;;;;12.38;10.02;;;11.90;99.90;;;;;;5090984;28;20043;-63
2023/10/24 04:57:50;;;;;;;11.20;9.15;;;11.60;99.90;;;;;;5095379;28;20108;-64
2023/10/24 05:00:16;;;;;;;12.77;9.13;;;11.60;99.90;;;;;;5093818;28;20047;-62
2023/10/24 05:02:44;;;;;;;11.18;8.88;;;11.80;99.90;;;;;;5095717;28;20048;-65
2023/10/24 05:05:10;;;;;;;12.00;8.77;;;11.70;99.90;;;;;;5078731;28;20513;-63
2023/10/24 05:07:37;;;;;;;12.23;8.27;;;11.60;99.90;;;;;;5078117;28;20044;-62
2023/10/24 05:10:04;;;;;;;10.13;8.18;;;11.60;99.90;;;;;;5100173;27;20112;-63
2023/10/24 05:12:30;;;;;;;11.15;9.18;;;11.60;99.90;;;;;;5116221;27;20062;-63
2023/10/24 05:14:56;;;;;;;9.48;8.00;;;11.80;99.90;;;;;;5095024;28;20043;-63
2023/10/24 05:17:23;;;;;;;10.27;8.98;;;11.80;99.90;;;;;;5077866;28;20094;-65
2023/10/24 05:19:49;;;;;;;9.88;7.78;;;11.40;99.90;;;;;;5097623;27;20038;-65
2023/10/24 05:22:16;;;;;;;9.75;7.63;;;11.40;99.90;;;;;;5084098;27;20044;-63
2023/10/24 05:24:42;;;;;;;9.60;6.93;;;11.40;99.90;;;;;;5098830;27;20043;-64
2023/10/24 05:27:08;;;;;;;7.75;6.80;;;11.40;99.90;;;;;;5097080;28;20067;-63
2023/10/24 05:29:35;;;;;;;7.07;6.10;;;11.70;99.90;;;;;;5098768;27;20407;-66
2023/10/24 05:32:01;;;;;;;10.52;7.38;;;11.70;99.90;;;;;;5118875;27;20051;-66
2023/10/24 05:34:28;;;;;;;9.13;7.57;;;11.30;99.90;;;;;;5100775;27;20043;-66
2023/10/24 05:36:55;;;;;;;8.60;6.38;;;11.60;99.90;;;;;;5116845;27;20340;-66
2023/10/24 05:39:24;;;;;;;9.93;6.30;;;11.30;99.90;;;;;;5117946;27;20340;-66
2023/10/24 05:41:50;;;;;;;10.55;7.22;;;11.30;99.90;;;;;;5118172;27;20058;-66
2023/10/24 05:44:16;;;;;;;8.07;6.68;;;11.30;99.90;;;;;;5111901;28;20075;-66
2023/10/24 05:46:43;;;;;;;7.85;6.75;;;11.30;99.90;;;;;;5095111;28;20044;-65
2023/10/24 05:49:09;;;;;;;10.45;6.57;;;11.50;99.90;;;;;;5095254;28;20079;-65
2023/10/24 05:51:35;;;;;;;10.07;6.68;;;11.40;99.90;;;;;;5094867;28;20395;-65
2023/10/24 05:54:01;;;;;;;7.47;6.57;;;11.40;99.90;;;;;;5095606;28;20048;-65
2023/10/24 05:56:28;;;;;;;8.95;6.50;;;11.30;99.90;;;;;;5095238;28;20435;-65
2023/10/24 05:58:54;;;;;;;9.82;6.28;;;11.60;99.90;;;;;;5095452;28;20456;-65
2023/10/24 06:01:20;;;;;;;9.65;6.70;;;11.20;99.90;;;;;;5094937;28;20062;-65
2023/10/24 06:03:47;;;;;;;7.78;6.15;;;11.20;99.90;;;;;;5095260;28;20110;-65
2023/10/24 06:06:13;;;;;;;8.07;6.07;;;11.50;99.90;;;;;;5095123;28;20476;-65
2023/10/24 06:08:39;;;;;;;7.57;5.95;;;11.20;99.90;;;;;;5094551;28;20113;-65
2023/10/24 06:11:06;;;;;;;8.23;6.25;;;11.20;99.90;;;;;;5108480;28;20078;-65
2023/10/24 06:13:32;;;;;;;8.88;6.20;;;11.30;99.90;;;;;;5115311;28;20057;-65
2023/10/24 06:16:16;;;;;;;8.18;6.97;;;11.20;99.90;;;;;;5098296;28;20048;-65
2023/10/24 06:18:43;;;;;;;7.15;5.90;;;11.40;99.90;;;;;;5115500;28;20051;-65
2023/10/24 06:21:11;;;;;;;9.45;6.57;;;11.50;99.90;;;;;;5115238;28;20047;-65
2023/10/24 06:23:40;;;;;;;8.45;5.78;;;11.40;99.90;;;;;;5098776;28;20062;-65
2023/10/24 06:26:15;;;;;;;8.52;6.22;;;11.50;99.90;;;;;;5114853;28;20058;-65
2023/10/24 06:28:42;;;;;;;6.68;5.95;;;11.20;99.90;;;;;;5115392;28;20120;-65
2023/10/24 06:31:08;;;;;;;8.52;6.22;;;11.50;99.90;;;;;;5114817;28;20050;-65
2023/10/24 06:33:35;;;;;;;9.98;7.03;;;11.20;99.90;;;;;;5115195;28;20467;-65
2023/10/24 06:36:02;;;;;;;7.97;6.75;;;11.50;99.90;;;;;;5114575;28;20104;-65
2023/10/24 06:38:28;;;;;;;10.95;7.60;;;11.20;99.90;;;;;;5114883;28;20130;-65
2023/10/24 06:40:55;;;;;;;8.07;6.55;;;11.50;99.90;;;;;;5114595;28;20057;-65
2023/10/24 06:43:23;;;;;;;8.70;7.78;;;11.50;99.90;;;;;;5114724;28;20414;-64
2023/10/24 06:45:49;;;;;;;8.50;6.68;;;11.50;99.90;;;;;;5114839;28;20051;-65
2023/10/24 06:48:15;;;;;;;9.10;7.18;;;11.20;99.90;;;;;;5115096;28;20054;-65
2023/10/24 06:50:41;;;;;;;12.80;7.35;;;11.40;99.90;;;;;;5105607;28;20048;-65
2023/10/24 06:53:09;;;;;;;8.52;6.78;;;11.20;99.90;;;;;;5094038;28;20060;-65
2023/10/24 06:55:36;;;;;;;11.52;8.07;;;11.40;99.90;;;;;;5093836;28;20399;-65
2023/10/24 06:58:05;;;;;;;10.57;6.97;;;11.20;99.90;;;;;;5093814;28;20044;-64
2023/10/24 07:00:32;;;;;;;10.90;7.20;;;11.10;99.90;;;;;;5094693;28;20147;-65
2023/10/24 07:02:58;;;;;;;9.93;7.22;;;11.20;99.90;;;;;;5093607;28;20040;-64
2023/10/24 07:05:26;;;;;;;9.45;7.15;;;11.50;99.90;;;;;;5093506;28;20059;-64
2023/10/24 07:08:03;;;;;;;11.52;8.75;;;11.20;99.90;;;;;;5094503;28;20076;-65
2023/10/24 07:10:31;;;;;;;11.40;7.15;;;11.50;99.90;;;;;;5100429;28;20040;-64
2023/10/24 07:12:57;;;;;;;10.25;7.20;;;11.30;99.90;;;;;;5113712;28;20044;-64
2023/10/24 07:15:25;;;;;;;10.90;7.20;;;11.30;99.90;;;;;;5113736;28;20415;-64
2023/10/24 07:17:51;;;;;;;12.00;7.97;;;11.20;99.90;;;;;;5113895;28;20044;-64
2023/10/24 07:20:17;;;;;;;10.05;6.85;;;11.30;99.90;;;;;;5113634;28;20043;-64
2023/10/24 07:22:43;;;;;;;11.00;7.90;;;11.40;99.90;;;;;;5113690;28;20052;-64
2023/10/24 07:25:10;;;;;;;10.23;7.55;;;11.20;99.90;;;;;;5096095;28;20048;-64
2023/10/24 07:27:36;;;;;;;10.40;7.57;;;11.30;99.90;;;;;;5113508;28;20051;-64
2023/10/24 07:30:02;;;;;;;11.93;8.18;;;11.20;99.90;;;;;;5113454;28;20036;-65
2023/10/24 07:32:29;;;;;;;10.43;7.65;;;11.30;99.90;;;;;;5113684;28;20060;-64
2023/10/24 07:34:56;;;;;;;11.27;7.30;;;11.20;99.90;;;;;;5113248;28;20142;-64
2023/10/24 07:37:23;;;;;;;10.68;7.50;;;11.50;99.90;;;;;;5113113;28;20039;-64
2023/10/24 07:39:50;;;;;;;10.57;7.65;;;11.30;99.90;;;;;;5112573;28;20081;-64
2023/10/24 07:42:16;;;;;;;12.35;8.05;;;11.20;99.90;;;;;;5096110;28;20471;-64
2023/10/24 07:44:42;;;;;;;11.07;8.68;;;11.50;99.90;;;;;;5095985;28;20047;-64
2023/10/24 07:47:08;;;;;;;9.95;7.78;;;11.50;99.90;;;;;;5096343;28;20052;-64
2023/10/24 07:49:35;;;;;;;12.15;8.65;;;11.20;99.90;;;;;;5096637;28;20557;-64
2023/10/24 07:52:03;;;;;;;11.27;7.93;;;11.30;99.90;;;;;;5095976;28;20052;-64
2023/10/24 07:54:30;;;;;;;12.15;8.25;;;11.50;99.90;;;;;;5096423;28;20055;-64
2023/10/24 07:56:56;;;;;;;10.68;8.82;;;11.20;99.90;;;;;;5079371;28;20073;-64
2023/10/24 07:59:23;;;;;;;12.38;9.45;;;11.50;99.90;;;;;;5096076;28;20459;-64
2023/10/24 08:01:49;;;;;;;11.57;7.75;;;11.30;99.90;;;;;;5078048;28;20048;-64
2023/10/24 08:04:15;;;;;;;12.40;8.82;;;11.20;99.90;;;;;;5075702;28;20048;-64
2023/10/24 08:06:41;;;;;;;11.20;8.15;;;11.30;99.90;;;;;;5075914;28;20066;-64
2023/10/24 08:09:07;;;;;;;12.05;9.07;;;11.20;99.90;;;;;;5075861;28;20078;-65
2023/10/24 08:11:34;;;;;;;11.13;8.02;;;11.20;99.90;;;;;;5076300;28;20468;-65
2023/10/24 08:14:00;;;;;;;12.68;8.27;;;11.20;99.90;;;;;;5075827;28;20052;-64
2023/10/24 08:16:26;;;;;;;12.57;8.40;;;11.20;99.90;;;;;;5075698;28;20453;-64
2023/10/24 08:18:52;;;;;;;11.55;8.63;;;11.00;99.90;;;;;;5059170;28;20058;-65
2023/10/24 08:21:19;;;;;;;14.02;8.23;;;11.30;99.90;;;;;;5076034;28;20048;-64
2023/10/24 08:23:45;;;;;;;12.40;8.70;;;11.30;99.90;;;;;;5075687;28;20048;-64
2023/10/24 08:26:13;;;;;;;12.57;8.15;;;11.30;99.90;;;;;;5059401;28;20097;-65
2023/10/24 08:28:39;;;;;;;11.98;8.52;;;11.40;99.90;;;;;;5075697;28;20059;-65
2023/10/24 08:31:05;;;;;;;11.55;9.00;;;11.20;99.90;;;;;;5076990;28;20059;-65
2023/10/24 08:33:33;;;;;;;10.63;8.13;;;11.20;99.90;;;;;;5079785;28;20048;-65
2023/10/24 08:35:59;;;;;;;10.32;7.85;;;11.30;99.90;;;;;;5079822;28;20376;-65
2023/10/24 08:38:25;;;;;;;11.80;8.27;;;11.30;99.90;;;;;;5079605;28;20476;-65
2023/10/24 08:40:51;;;;;;;11.38;8.15;;;11.30;99.90;;;;;;5079272;28;20065;-65
2023/10/24 08:43:20;;;;;;;11.75;8.38;;;11.50;99.90;;;;;;5097712;28;20058;-65
2023/10/24 08:45:50;;;;;;;11.73;8.52;;;11.50;99.90;;;;;;5099932;28;20058;-65
2023/10/24 08:48:17;;;;;;;10.35;7.60;;;11.30;99.90;;;;;;5118298;28;20315;-64
2023/10/24 08:50:45;;;;;;;11.40;8.13;;;11.50;99.90;;;;;;5082080;28;20473;-65
2023/10/24 08:53:13;;;;;;;10.35;8.30;;;11.50;99.90;;;;;;5117424;28;20054;-65
2023/10/24 08:55:49;;;;;;;11.82;8.40;;;11.40;99.90;;;;;;5099364;28;20051;-65
2023/10/24 08:58:16;;;;;;;9.98;8.13;;;11.30;99.90;;;;;;5099410;28;20059;-64
2023/10/24 09:00:43;;;;;;;11.20;9.48;;;11.60;99.90;;;;;;5090416;28;20040;-64
2023/10/24 09:03:10;;;;;;;11.70;8.48;;;11.40;99.90;;;;;;5079188;28;20058;-65
2023/10/24 09:05:39;;;;;;;13.05;8.68;;;11.60;99.90;;;;;;5078840;28;20534;-65
2023/10/24 09:08:05;;;;;;;10.07;8.07;;;11.50;99.90;;;;;;5079184;28;20055;-65
2023/10/24 09:10:31;;;;;;;11.27;8.10;;;11.40;99.90;;;;;;5062434;28;20044;-65
2023/10/24 09:12:58;;;;;;;11.05;8.52;;;11.60;99.90;;;;;;5079220;28;20043;-65
2023/10/24 09:15:24;;;;;;;10.82;8.38;;;11.50;99.90;;;;;;5078731;28;20471;-65
2023/10/24 09:17:53;;;;;;;10.52;8.23;;;11.60;99.90;;;;;;5078660;28;20058;-65
2023/10/24 09:20:19;;;;;;;9.02;7.25;;;11.50;99.90;;;;;;5078397;28;20474;-65
2023/10/24 09:22:45;;;;;;;10.88;7.68;;;11.40;99.90;;;;;;5078353;28;20044;-64
2023/10/24 09:25:14;;;;;;;10.38;8.50;;;11.60;99.90;;;;;;5078348;28;20048;-65
2023/10/24 09:27:40;;;;;;;9.98;7.10;;;11.60;99.90;;;;;;5078588;28;20052;-65
2023/10/24 09:30:11;;;;;;;15.10;13.75;;;11.60;99.90;;;;;;5061942;28;20043;-65
2023/10/24 09:32:41;;;;;;;12.23;10.18;;;11.50;99.90;;;;;;5061939;28;20047;-65
2023/10/24 09:35:08;;;;;;;10.75;9.50;;;11.70;99.90;;;;;;5078016;28;20078;-65
2023/10/24 09:37:38;;;;;;;14.30;10.82;;;11.70;99.90;;;;;;5078213;28;20112;-65
2023/10/24 09:40:06;;;;;;;11.50;9.65;;;11.50;99.90;;;;;;5064540;28;20061;-65
2023/10/24 09:42:32;;;;;;;10.95;8.45;;;11.80;99.90;;;;;;5080763;28;20048;-65
2023/10/24 09:45:00;;;;;;;10.45;8.30;;;11.50;99.90;;;;;;5098267;28;20478;-65
2023/10/24 09:47:28;;;;;;;18.42;15.70;;;11.50;99.90;;;;;;5098310;28;20054;-65
2023/10/24 09:49:55;;;;;;;16.35;12.23;;;11.50;99.90;;;;;;5096418;28;20393;-64
2023/10/24 09:52:24;;;;;;;13.10;10.57;;;11.70;99.90;;;;;;5077703;28;20052;-64
2023/10/24 09:54:51;;;;;;;15.98;13.25;;;11.60;99.90;;;;;;5077486;28;20112;-65
2023/10/24 09:57:19;;;;;;;16.00;11.25;;;11.80;99.90;;;;;;5077380;28;20040;-64
2023/10/24 09:59:54;;;;;;;12.30;9.68;;;11.70;99.90;;;;;;5077918;28;20491;-64
2023/10/24 10:02:24;;;;;;;19.33;14.23;;;12.00;99.90;;;;;;5097416;28;20054;-65
2023/10/24 10:04:51;;;;;;;16.70;12.50;;;11.80;99.90;;;;;;5097762;28;20130;-65
2023/10/24 10:07:18;;;;;;;12.88;8.98;;;11.80;99.90;;;;;;5097396;28;20052;-64
2023/10/24 10:09:51;;;;;;;10.95;8.95;;;12.00;99.90;;;;;;5097161;28;20108;-65
2023/10/24 10:12:18;;;;;;;13.05;9.32;;;12.10;99.90;;;;;;5097164;28;20058;-65
2023/10/24 10:15:19;;;;;;;13.55;9.43;;;12.10;99.90;;;;;;5097208;28;20055;-64
2023/10/24 10:17:56;;;;;;;13.18;9.15;;;12.20;99.90;;;;;;5092326;28;20058;-64
2023/10/24 10:20:49;;;;;;;18.15;15.32;;;12.20;99.90;;;;;;5097773;28;20097;-65
2023/10/24 10:23:26;;;;;;;14.98;12.40;;;12.20;99.90;;;;;;5097399;28;20054;-65
2023/10/24 10:26:18;;;;;;;36.72;23.77;;;12.20;99.90;;;;;;5080170;28;20052;-65
2023/10/24 10:29:07;;;;;;;36.63;22.10;;;12.10;99.90;;;;;;5097326;28;20373;-65
2023/10/24 10:31:43;;;;;;;71.93;45.50;;;12.20;99.90;;;;;;5066247;28;20537;-65
2023/10/24 10:34:09;;;;;;;125.15;74.47;;;12.30;99.90;;;;;;5076976;28;20059;-65
2023/10/24 10:36:39;;;;;;;19.00;16.95;;;12.50;99.90;;;;;;5076238;28;20456;-65
2023/10/24 10:39:10;;;;;;;18.10;14.82;;;12.50;99.90;;;;;;5077164;28;20062;-65
2023/10/24 10:41:38;;;;;;;13.75;11.68;;;12.50;99.90;;;;;;5060225;28;20056;-65
2023/10/24 10:44:27;;;;;;;11.75;9.75;;;12.70;99.90;;;;;;5076397;28;20413;-65
2023/10/24 10:47:01;;;;;;;13.38;10.55;;;12.80;99.90;;;;;;5076579;28;20452;-65
2023/10/24 10:49:51;;;;;;;12.50;10.50;;;12.70;99.90;;;;;;5076890;28;20502;-65
2023/10/24 10:52:27;;;;;;;14.18;11.57;;;12.60;99.90;;;;;;5093090;28;20479;-65
2023/10/24 10:55:16;;;;;;;11.80;10.02;;;12.90;99.90;;;;;;5076561;28;20483;-65
2023/10/24 10:58:18;;;;;;;12.57;10.45;;;13.00;99.90;;;;;;5076335;28;20051;-65
2023/10/24 11:00:57;;;;;;;12.30;9.90;;;12.90;99.90;;;;;;5064253;28;20059;-65
2023/10/24 11:03:38;;;;;;;12.48;10.73;;;13.00;99.90;;;;;;5076192;28;20074;-66
2023/10/24 11:06:09;;;;;;;12.00;9.05;;;13.20;99.90;;;;;;5076491;28;20066;-66
2023/10/24 11:08:36;;;;;;;10.93;9.02;;;13.40;99.90;;;;;;5092892;28;20052;-65
2023/10/24 11:11:02;;;;;;;11.15;9.00;;;13.30;99.90;;;;;;5086094;28;20052;-66
2023/10/24 11:13:34;;;;;;;9.98;8.60;;;13.30;99.90;;;;;;5096368;28;20504;-65
2023/10/24 11:16:02;;;;;;;11.15;10.02;;;13.40;99.90;;;;;;5096594;28;20084;-65
2023/10/24 11:18:31;;;;;;;13.23;11.85;;;13.30;99.90;;;;;;5079775;28;20455;-65
2023/10/24 11:20:58;;;;;;;12.48;9.38;;;13.20;99.90;;;;;;5087615;28;20052;-65
2023/10/24 11:23:25;;;;;;;10.40;9.43;;;13.30;99.90;;;;;;5059518;28;20040;-65
2023/10/24 11:25:55;;;;;;;9.40;8.27;;;13.30;99.90;;;;;;5076430;28;20143;-65
2023/10/24 11:28:25;;;;;;;10.23;8.00;;;13.30;99.90;;;;;;5076229;28;20062;-66
2023/10/24 11:30:51;;;;;;;9.80;8.27;;;13.20;99.90;;;;;;5083572;28;20050;-66
2023/10/24 11:33:18;;;;;;;10.82;9.70;;;13.30;99.90;;;;;;5079434;28;20367;-65
2023/10/24 11:35:45;;;;;;;11.80;7.32;;;13.20;99.90;;;;;;5079436;28;20047;-65
2023/10/24 11:38:14;;;;;;;10.18;8.73;;;13.20;99.90;;;;;;5095736;28;20047;-65
2023/10/24 11:40:41;;;;;;;12.90;10.95;;;13.20;99.90;;;;;;5096331;28;20096;-65
2023/10/24 11:43:08;;;;;;;11.65;10.43;;;13.20;99.90;;;;;;5095710;28;20052;-65
2023/10/24 11:45:38;;;;;;;8.23;7.43;;;13.20;99.90;;;;;;5079178;28;20051;-65
2023/10/24 11:48:05;;;;;;;8.73;7.32;;;13.20;99.90;;;;;;5096058;28;20051;-65
2023/10/24 11:50:44;;;;;;;9.55;7.82;;;13.20;99.90;;;;;;5101304;27;20137;-65
2023/10/24 11:53:12;;;;;;;8.38;7.45;;;13.20;99.90;;;;;;5116406;27;20118;-65
2023/10/24 11:55:38;;;;;;;10.02;8.15;;;13.30;99.90;;;;;;5098955;27;20051;-65
2023/10/24 11:58:08;;;;;;;11.80;8.88;;;13.30;99.90;;;;;;5116228;27;20043;-65
2023/10/24 12:00:38;;;;;;;10.65;7.57;;;13.20;99.90;;;;;;5109778;28;20053;-65
2023/10/24 12:03:05;;;;;;;9.93;6.60;;;13.30;99.90;;;;;;5095856;28;20063;-65
2023/10/24 12:05:33;;;;;;;12.25;8.93;;;13.40;99.90;;;;;;5094770;28;20100;-65
2023/10/24 12:08:01;;;;;;;8.27;7.20;;;13.50;99.90;;;;;;5096277;28;20055;-66
2023/10/24 12:10:29;;;;;;;7.38;6.57;;;13.50;99.90;;;;;;5095992;28;20058;-65
2023/10/24 12:12:57;;;;;;;8.90;7.15;;;13.60;99.90;;;;;;5096151;28;20063;-65
2023/10/24 12:15:27;;;;;;;8.93;6.80;;;13.70;99.90;;;;;;5095821;28;20432;-66
2023/10/24 12:17:54;;;;;;;7.25;5.70;;;13.70;99.90;;;;;;5096054;28;20047;-65
2023/10/24 12:20:23;;;;;;;9.02;8.05;;;13.60;99.90;;;;;;5099324;28;20065;-65
2023/10/24 12:22:49;;;;;;;7.65;5.93;;;13.70;99.90;;;;;;5099657;28;20053;-65
2023/10/24 12:25:17;;;;;;;7.88;7.07;;;13.70;99.90;;;;;;5116108;28;20050;-65
2023/10/24 12:27:45;;;;;;;7.75;6.05;;;13.70;99.90;;;;;;5116376;28;20043;-66
2023/10/24 12:30:13;;;;;;;7.90;5.72;;;13.60;99.90;;;;;;5099889;28;20043;-65
2023/10/24 12:32:41;;;;;;;7.50;6.03;;;13.60;99.90;;;;;;5099738;28;20046;-65
2023/10/24 12:35:10;;;;;;;7.20;5.97;;;13.60;99.90;;;;;;5116548;28;20059;-65
2023/10/24 12:37:37;;;;;;;6.75;5.80;;;13.50;99.90;;;;;;5116507;28;20043;-66
2023/10/24 12:40:04;;;;;;;6.90;5.90;;;13.50;99.90;;;;;;5116669;28;20055;-66